createdAt,value
2018-09-27T00:00:30.165Z,0.50
2018-09-27T00:01:30.193Z,0.50
2018-09-27T00:02:30.223Z,0.60
2018-09-27T00:03:30.265Z,0.60
2018-09-27T00:04:30.274Z,0.40
2018-09-27T00:05:30.303Z,0.50
2018-09-27T00:06:30.334Z,0.60
2018-09-27T00:07:30.357Z,0.50
2018-09-27T00:08:30.382Z,0.50
2018-09-27T00:09:30.410Z,0.50
2018-09-27T00:10:30.435Z,0.60
2018-09-27T00:11:30.464Z,0.70
2018-09-27T00:12:30.489Z,0.50
2018-09-27T00:13:30.516Z,0.70
2018-09-27T00:14:30.543Z,0.50
2018-09-27T00:15:30.574Z,0.60
2018-09-27T00:16:30.596Z,0.50
2018-09-27T00:17:30.625Z,0.40
2018-09-27T00:18:30.650Z,0.50
2018-09-27T00:19:30.715Z,0.40
2018-09-27T00:20:30.704Z,0.40
2018-09-27T00:21:30.730Z,0.60
2018-09-27T00:22:30.760Z,0.50
2018-09-27T00:23:30.785Z,0.50
2018-09-27T00:24:30.813Z,0.50
2018-09-27T00:25:30.838Z,0.50
2018-09-27T00:26:30.868Z,0.60
2018-09-27T00:27:30.894Z,0.50
2018-09-27T00:28:30.920Z,0.50
2018-09-27T00:29:30.948Z,0.60
2018-09-27T00:30:30.972Z,0.50
2018-09-27T00:31:31.002Z,0.50
2018-09-27T00:33:31.053Z,0.50
2018-09-27T00:34:31.083Z,0.50
2018-09-27T00:35:31.107Z,0.50
2018-09-27T00:36:31.133Z,0.50
2018-09-27T00:37:31.160Z,0.50
2018-09-27T00:38:31.188Z,0.70
2018-09-27T00:39:31.216Z,0.60
2018-09-27T00:40:31.241Z,0.50
2018-09-27T00:41:31.267Z,0.50
2018-09-27T00:42:31.293Z,0.50
2018-09-27T00:43:31.321Z,0.60
2018-09-27T00:44:31.348Z,0.50
2018-09-27T00:45:31.375Z,0.50
2018-09-27T00:46:31.602Z,0.60
2018-09-27T00:47:31.427Z,0.60
2018-09-27T00:48:31.472Z,0.50
2018-09-27T00:49:31.481Z,0.60
2018-09-27T00:50:31.509Z,0.50
2018-09-27T00:51:31.538Z,0.50
2018-09-27T00:52:31.562Z,0.50
2018-09-27T00:53:31.588Z,0.60
2018-09-27T00:54:31.637Z,0.40
2018-09-27T00:55:31.641Z,0.50
2018-09-27T00:56:31.667Z,0.70
2018-09-27T00:57:31.694Z,0.60
2018-09-27T00:58:31.724Z,0.60
2018-09-27T00:59:31.755Z,0.70
2018-09-27T01:00:31.778Z,0.60
2018-09-27T01:01:31.801Z,0.60
2018-09-27T01:02:31.828Z,0.40
2018-09-27T01:03:31.855Z,0.50
2018-09-27T01:04:31.881Z,0.50
2018-09-27T01:05:31.910Z,0.60
2018-09-27T01:06:31.935Z,0.60
2018-09-27T01:07:31.982Z,0.50
2018-09-27T01:08:31.990Z,0.60
2018-09-27T01:09:32.015Z,0.50
2018-09-27T01:10:32.042Z,0.50
2018-09-27T01:11:32.071Z,0.60
2018-09-27T01:12:32.095Z,0.50
2018-09-27T01:13:32.121Z,0.40
2018-09-27T01:14:32.150Z,0.50
2018-09-27T01:15:32.179Z,0.50
2018-09-27T01:16:32.202Z,0.40
2018-09-27T01:17:32.228Z,0.60
2018-09-27T01:18:32.256Z,0.50
2018-09-27T01:19:32.282Z,0.40
2018-09-27T01:20:32.309Z,0.50
2018-09-27T01:21:32.338Z,0.50
2018-09-27T01:22:32.364Z,0.50
2018-09-27T01:23:32.389Z,0.50
2018-09-27T01:24:32.417Z,0.60
2018-09-27T01:25:32.441Z,0.50
2018-09-27T01:26:32.471Z,0.60
2018-09-27T01:27:32.500Z,0.50
2018-09-27T01:28:32.524Z,0.40
2018-09-27T01:29:32.900Z,0.40
2018-09-27T01:30:32.578Z,0.50
2018-09-27T01:31:32.620Z,0.50
2018-09-27T01:32:32.632Z,0.60
2018-09-27T01:33:32.656Z,0.50
2018-09-27T01:34:32.684Z,0.60
2018-09-27T01:35:32.709Z,0.50
2018-09-27T01:36:32.736Z,0.60
2018-09-27T01:37:32.765Z,0.50
2018-09-27T01:38:32.790Z,0.50
2018-09-27T01:39:32.818Z,0.50
2018-09-27T01:40:32.844Z,0.50
2018-09-27T01:41:32.869Z,0.50
2018-09-27T01:42:32.898Z,0.40
2018-09-27T01:43:32.927Z,0.50
2018-09-27T01:44:32.948Z,0.50
2018-09-27T01:45:32.976Z,0.50
2018-09-27T01:46:33.002Z,0.40
2018-09-27T01:47:33.029Z,0.50
2018-09-27T01:48:33.080Z,0.60
2018-09-27T01:49:33.082Z,0.60
2018-09-27T01:50:33.109Z,0.50
2018-09-27T01:51:33.136Z,0.50
2018-09-27T01:52:33.161Z,0.50
2018-09-27T01:53:33.190Z,0.50
2018-09-27T01:54:33.215Z,0.60
2018-09-27T01:55:33.242Z,0.50
2018-09-27T01:56:33.267Z,0.50
2018-09-27T01:57:33.297Z,0.50
2018-09-27T01:58:33.321Z,0.60
2018-09-27T01:59:33.350Z,0.60
2018-09-27T02:00:33.375Z,0.60
2018-09-27T02:01:33.401Z,0.60
2018-09-27T02:02:33.429Z,0.60
2018-09-27T02:03:33.454Z,0.60
2018-09-27T02:04:33.481Z,0.60
2018-09-27T02:05:33.508Z,0.60
2018-09-27T02:06:33.536Z,0.50
2018-09-27T02:07:33.561Z,0.60
2018-09-27T02:08:33.588Z,0.50
2018-09-27T02:09:33.615Z,0.50
2018-09-27T02:10:33.643Z,0.50
2018-09-27T02:11:33.670Z,0.60
2018-09-27T02:12:33.693Z,0.50
2018-09-27T02:13:33.719Z,0.50
2018-09-27T02:14:33.747Z,0.50
2018-09-27T02:15:33.773Z,0.50
2018-09-27T02:16:33.802Z,0.60
2018-09-27T02:17:33.827Z,0.50
2018-09-27T02:18:33.854Z,0.60
2018-09-27T02:19:33.885Z,0.50
2018-09-27T02:20:33.906Z,0.60
2018-09-27T02:21:33.933Z,0.50
2018-09-27T02:22:33.961Z,0.60
2018-09-27T02:23:33.989Z,0.60
2018-09-27T02:24:34.028Z,0.70
2018-09-27T02:25:34.041Z,0.60
2018-09-27T02:26:34.067Z,0.50
2018-09-27T02:27:34.093Z,0.50
2018-09-27T02:28:34.119Z,0.50
2018-09-27T02:29:34.148Z,0.60
2018-09-27T02:30:34.192Z,0.60
2018-09-27T02:31:34.201Z,0.60
2018-09-27T02:32:34.225Z,0.70
2018-09-27T02:33:34.253Z,0.50
2018-09-27T02:34:34.299Z,0.50
2018-09-27T02:35:34.308Z,0.50
2018-09-27T02:36:34.334Z,0.50
2018-09-27T02:37:34.360Z,0.60
2018-09-27T02:38:34.385Z,0.50
2018-09-27T02:39:34.413Z,0.60
2018-09-27T02:40:34.438Z,0.50
2018-09-27T02:41:34.466Z,0.50
2018-09-27T02:42:34.491Z,0.60
2018-09-27T02:43:34.518Z,0.50
2018-09-27T02:44:34.546Z,0.60
2018-09-27T02:45:34.572Z,0.70
2018-09-27T02:46:34.601Z,0.60
2018-09-27T02:47:34.628Z,0.60
2018-09-27T02:48:34.651Z,0.50
2018-09-27T02:49:34.679Z,0.60
2018-09-27T02:50:34.704Z,0.50
2018-09-27T02:51:34.734Z,0.60
2018-09-27T02:52:34.757Z,0.60
2018-09-27T02:53:34.786Z,0.50
2018-09-27T02:54:34.810Z,0.60
2018-09-27T02:55:34.841Z,0.50
2018-09-27T02:56:34.865Z,0.50
2018-09-27T02:57:34.890Z,0.50
2018-09-27T02:58:34.917Z,0.50
2018-09-27T02:59:34.945Z,0.60
2018-09-27T03:00:34.970Z,0.50
2018-09-27T03:01:34.998Z,0.60
2018-09-27T03:02:35.022Z,0.50
2018-09-27T03:03:35.052Z,0.60
2018-09-27T03:04:35.076Z,0.60
2018-09-27T03:05:35.105Z,0.60
2018-09-27T03:06:35.132Z,0.50
2018-09-27T03:07:35.159Z,0.50
2018-09-27T03:08:35.184Z,0.50
2018-09-27T03:09:35.209Z,0.60
2018-09-27T03:10:35.236Z,0.50
2018-09-27T03:11:35.263Z,0.50
2018-09-27T03:12:35.288Z,0.50
2018-09-27T03:13:35.316Z,0.60
2018-09-27T03:14:35.343Z,0.60
2018-09-27T03:15:35.373Z,0.70
2018-09-27T03:16:35.417Z,0.80
2018-09-27T03:17:35.424Z,0.70
2018-09-27T03:18:35.459Z,0.60
2018-09-27T03:19:35.476Z,0.50
2018-09-27T03:20:35.502Z,0.50
2018-09-27T03:21:35.530Z,0.60
2018-09-27T03:22:35.556Z,0.60
2018-09-27T03:23:35.585Z,0.60
2018-09-27T03:24:35.609Z,0.50
2018-09-27T03:25:35.655Z,0.50
2018-09-27T03:26:35.665Z,0.50
2018-09-27T03:27:35.690Z,0.50
2018-09-27T03:28:35.717Z,0.50
2018-09-27T03:29:35.743Z,0.60
2018-09-27T03:30:35.770Z,0.50
2018-09-27T03:31:35.797Z,0.50
2018-09-27T03:32:35.826Z,0.50
2018-09-27T03:33:35.856Z,0.50
2018-09-27T03:34:35.878Z,0.50
2018-09-27T03:35:35.904Z,0.50
2018-09-27T03:36:35.931Z,0.40
2018-09-27T03:37:35.958Z,0.60
2018-09-27T03:38:36.004Z,0.50
2018-09-27T03:39:36.031Z,0.60
2018-09-27T03:40:36.162Z,0.50
2018-09-27T03:41:36.079Z,0.50
2018-09-27T03:42:36.093Z,0.60
2018-09-27T03:43:36.125Z,0.60
2018-09-27T03:44:36.146Z,0.60
2018-09-27T03:45:36.188Z,0.60
2018-09-27T03:46:36.200Z,0.50
2018-09-27T03:47:36.227Z,0.50
2018-09-27T03:48:36.255Z,0.60
2018-09-27T03:49:36.282Z,0.50
2018-09-27T03:50:36.308Z,0.60
2018-09-27T03:51:36.335Z,0.60
2018-09-27T03:52:36.361Z,0.50
2018-09-27T03:53:36.388Z,0.50
2018-09-27T03:54:36.415Z,0.50
2018-09-27T03:55:36.443Z,0.60
2018-09-27T03:56:36.488Z,0.50
2018-09-27T03:57:36.498Z,0.50
2018-09-27T03:58:36.525Z,0.60
2018-09-27T03:59:36.551Z,0.50
2018-09-27T04:00:36.578Z,0.40
2018-09-27T04:01:36.604Z,0.50
2018-09-27T04:02:36.633Z,0.50
2018-09-27T04:03:36.662Z,0.60
2018-09-27T04:04:36.687Z,0.60
2018-09-27T04:05:36.713Z,0.50
2018-09-27T04:06:36.741Z,0.60
2018-09-27T04:07:36.768Z,0.50
2018-09-27T04:08:36.794Z,0.50
2018-09-27T04:09:36.821Z,0.60
2018-09-27T04:10:36.849Z,0.70
2018-09-27T04:11:36.890Z,0.60
2018-09-27T04:12:36.916Z,0.60
2018-09-27T04:13:36.929Z,0.60
2018-09-27T04:14:36.955Z,0.70
2018-09-27T04:15:36.985Z,0.50
2018-09-27T04:16:37.011Z,0.60
2018-09-27T04:17:37.036Z,0.50
2018-09-27T04:18:37.064Z,0.70
2018-09-27T04:19:37.090Z,0.50
2018-09-27T04:20:37.117Z,0.50
2018-09-27T04:21:37.149Z,0.50
2018-09-27T04:22:37.177Z,0.60
2018-09-27T04:23:37.198Z,0.60
2018-09-27T04:24:37.244Z,0.60
2018-09-27T04:25:37.254Z,0.50
2018-09-27T04:26:37.280Z,0.40
2018-09-27T04:27:37.372Z,0.60
2018-09-27T04:28:37.335Z,0.60
2018-09-27T04:29:37.364Z,0.50
2018-09-27T04:30:37.388Z,0.50
2018-09-27T04:31:37.415Z,0.60
2018-09-27T04:32:37.441Z,0.50
2018-09-27T04:33:37.518Z,0.50
2018-09-27T04:34:37.495Z,0.50
2018-09-27T04:35:37.543Z,0.50
2018-09-27T04:36:37.550Z,0.50
2018-09-27T04:37:37.578Z,0.50
2018-09-27T04:38:37.605Z,0.60
2018-09-27T04:39:37.669Z,0.60
2018-09-27T04:40:37.659Z,0.50
2018-09-27T04:41:37.706Z,0.50
2018-09-27T04:42:37.714Z,0.60
2018-09-27T04:43:37.743Z,0.60
2018-09-27T04:44:37.767Z,0.50
2018-09-27T04:45:37.836Z,0.60
2018-09-27T04:46:37.885Z,0.70
2018-09-27T04:47:37.849Z,0.50
2018-09-27T04:48:37.875Z,0.50
2018-09-27T04:49:37.906Z,0.50
2018-09-27T04:50:37.934Z,0.60
2018-09-27T04:51:37.993Z,0.50
2018-09-27T04:52:37.985Z,0.60
2018-09-27T04:53:38.011Z,0.60
2018-09-27T04:54:38.102Z,0.50
2018-09-27T04:55:38.067Z,0.50
2018-09-27T04:56:38.097Z,0.40
2018-09-27T04:57:38.119Z,0.40
2018-09-27T04:58:38.146Z,0.50
2018-09-27T04:59:38.173Z,0.60
2018-09-27T05:00:38.202Z,0.50
2018-09-27T05:01:38.227Z,0.50
2018-09-27T05:02:38.254Z,0.50
2018-09-27T05:03:38.327Z,0.50
2018-09-27T05:04:38.310Z,0.60
2018-09-27T05:05:38.337Z,0.50
2018-09-27T05:06:38.362Z,0.50
2018-09-27T05:07:38.409Z,0.50
2018-09-27T05:08:38.417Z,0.60
2018-09-27T05:09:38.500Z,0.50
2018-09-27T05:10:38.473Z,0.50
2018-09-27T05:11:38.499Z,0.60
2018-09-27T05:12:38.525Z,0.50
2018-09-27T05:13:38.554Z,0.60
2018-09-27T05:14:38.579Z,0.40
2018-09-27T05:15:38.671Z,0.50
2018-09-27T05:16:38.633Z,0.60
2018-09-27T05:17:38.662Z,0.50
2018-09-27T05:18:38.689Z,0.60
2018-09-27T05:19:38.716Z,0.50
2018-09-27T05:20:38.744Z,0.60
2018-09-27T05:21:38.829Z,0.50
2018-09-27T05:22:38.796Z,0.50
2018-09-27T05:23:38.824Z,0.50
2018-09-27T05:24:38.855Z,0.60
2018-09-27T05:25:38.880Z,0.50
2018-09-27T05:26:38.904Z,0.50
2018-09-27T05:27:38.994Z,0.60
2018-09-27T05:28:38.960Z,0.50
2018-09-27T05:29:38.985Z,0.60
2018-09-27T05:30:39.034Z,0.50
2018-09-27T05:31:39.040Z,0.50
2018-09-27T05:32:39.066Z,0.60
2018-09-27T05:33:39.184Z,0.60
2018-09-27T05:34:39.122Z,0.60
2018-09-27T05:35:39.153Z,0.70
2018-09-27T05:36:39.176Z,0.50
2018-09-27T05:37:39.203Z,0.50
2018-09-27T05:38:39.231Z,0.50
2018-09-27T05:39:39.336Z,0.50
2018-09-27T05:40:39.287Z,0.50
2018-09-27T05:41:39.313Z,0.60
2018-09-27T05:42:39.337Z,0.50
2018-09-27T05:43:39.367Z,0.60
2018-09-27T05:44:39.393Z,0.50
2018-09-27T05:45:39.491Z,0.60
2018-09-27T05:46:39.447Z,0.50
2018-09-27T05:47:39.476Z,0.60
2018-09-27T05:48:39.501Z,0.50
2018-09-27T05:49:39.529Z,0.60
2018-09-27T05:50:39.556Z,0.50
2018-09-27T05:51:39.702Z,0.50
2018-09-27T05:52:39.608Z,0.40
2018-09-27T05:53:39.637Z,0.50
2018-09-27T05:54:39.664Z,0.50
2018-09-27T05:55:39.692Z,0.50
2018-09-27T05:56:39.737Z,0.50
2018-09-27T05:57:39.750Z,0.50
2018-09-27T05:58:39.771Z,0.50
2018-09-27T05:59:39.798Z,0.60
2018-09-27T06:00:39.827Z,0.40
2018-09-27T06:01:39.861Z,0.60
2018-09-27T06:02:39.881Z,0.50
2018-09-27T06:03:39.971Z,0.50
2018-09-27T06:04:39.965Z,0.60
2018-09-27T06:05:39.960Z,0.60
2018-09-27T06:06:39.992Z,0.60
2018-09-27T06:07:40.017Z,0.50
2018-09-27T06:08:40.043Z,0.50
2018-09-27T06:09:40.162Z,0.40
2018-09-27T06:10:40.095Z,0.60
2018-09-27T06:11:40.130Z,0.50
2018-09-27T06:12:40.148Z,0.60
2018-09-27T06:13:40.178Z,0.40
2018-09-27T06:14:40.203Z,0.50
2018-09-27T06:15:40.309Z,0.50
2018-09-27T06:16:40.258Z,0.50
2018-09-27T06:17:40.286Z,0.50
2018-09-27T06:18:40.314Z,0.50
2018-09-27T06:19:40.439Z,0.50
2018-09-27T06:20:40.367Z,0.50
2018-09-27T06:21:40.486Z,0.50
2018-09-27T06:22:40.421Z,0.50
2018-09-27T06:23:40.446Z,0.50
2018-09-27T06:24:40.472Z,0.60
2018-09-27T06:25:40.516Z,0.50
2018-09-27T06:26:40.528Z,0.40
2018-09-27T06:27:40.626Z,0.50
2018-09-27T06:28:40.582Z,0.60
2018-09-27T06:29:40.610Z,0.50
2018-09-27T06:30:40.636Z,0.50
2018-09-27T06:31:40.662Z,0.50
2018-09-27T06:32:40.689Z,0.50
2018-09-27T06:33:40.808Z,0.60
2018-09-27T06:34:40.746Z,0.50
2018-09-27T06:35:40.770Z,0.50
2018-09-27T06:36:40.799Z,0.50
2018-09-27T06:37:40.824Z,0.40
2018-09-27T06:38:40.914Z,0.60
2018-09-27T06:39:40.885Z,0.50
2018-09-27T06:40:40.908Z,0.50
2018-09-27T06:41:40.936Z,0.60
2018-09-27T06:42:40.962Z,0.50
2018-09-27T06:43:40.987Z,0.60
2018-09-27T06:44:41.043Z,0.60
2018-09-27T06:45:41.043Z,0.50
2018-09-27T06:46:41.069Z,0.60
2018-09-27T06:47:41.098Z,0.50
2018-09-27T06:48:41.174Z,0.60
2018-09-27T06:49:41.153Z,0.50
2018-09-27T06:50:41.290Z,0.40
2018-09-27T06:51:41.204Z,0.50
2018-09-27T06:52:41.234Z,0.50
2018-09-27T06:53:41.261Z,0.50
2018-09-27T06:54:41.292Z,0.60
2018-09-27T06:55:41.485Z,0.40
2018-09-27T06:56:41.430Z,0.50
2018-09-27T06:57:41.372Z,0.50
2018-09-27T06:58:41.396Z,0.50
2018-09-27T06:59:41.425Z,0.50
2018-09-27T07:00:41.455Z,0.50
2018-09-27T07:01:41.478Z,0.50
2018-09-27T07:02:41.607Z,0.60
2018-09-27T07:03:41.583Z,0.60
2018-09-27T07:04:41.575Z,0.60
2018-09-27T07:05:41.587Z,0.60
2018-09-27T07:06:41.615Z,0.60
2018-09-27T07:07:41.641Z,0.60
2018-09-27T07:08:41.696Z,0.60
2018-09-27T07:09:41.702Z,0.50
2018-09-27T07:10:41.723Z,0.50
2018-09-27T07:11:41.757Z,0.50
2018-09-27T07:12:41.812Z,0.50
2018-09-27T07:13:41.805Z,0.50
2018-09-27T07:14:41.915Z,0.40
2018-09-27T07:15:41.914Z,0.60
2018-09-27T07:16:41.886Z,0.50
2018-09-27T07:17:41.914Z,0.50
2018-09-27T07:18:41.954Z,0.50
2018-09-27T07:19:41.970Z,0.60
2018-09-27T07:20:42.042Z,0.50
2018-09-27T07:21:42.026Z,0.50
2018-09-27T07:22:42.057Z,0.60
2018-09-27T07:23:42.080Z,0.50
2018-09-27T07:24:42.110Z,0.50
2018-09-27T07:25:42.135Z,0.40
2018-09-27T07:26:42.226Z,0.50
2018-09-27T07:27:42.190Z,0.50
2018-09-27T07:28:42.217Z,0.40
2018-09-27T07:29:42.241Z,0.50
2018-09-27T07:30:42.274Z,0.60
2018-09-27T07:31:42.297Z,0.40
2018-09-27T07:32:42.386Z,0.40
2018-09-27T07:33:42.353Z,0.40
2018-09-27T07:34:42.379Z,0.50
2018-09-27T07:35:42.408Z,0.50
2018-09-27T07:36:42.568Z,0.50
2018-09-27T07:37:42.461Z,0.40
2018-09-27T07:38:42.552Z,0.50
2018-09-27T07:39:42.519Z,0.60
2018-09-27T07:40:42.545Z,0.60
2018-09-27T07:41:42.573Z,0.60
2018-09-27T07:42:42.664Z,0.60
2018-09-27T07:43:42.631Z,0.50
2018-09-27T07:44:42.728Z,0.60
2018-09-27T07:45:42.686Z,0.60
2018-09-27T07:46:42.720Z,0.40
2018-09-27T07:47:42.745Z,0.40
2018-09-27T07:48:42.775Z,0.40
2018-09-27T07:49:42.802Z,0.50
2018-09-27T07:50:42.953Z,0.60
2018-09-27T07:51:42.861Z,0.60
2018-09-27T07:52:42.893Z,0.60
2018-09-27T07:53:42.920Z,0.50
2018-09-27T07:54:43.003Z,0.50
2018-09-27T07:55:42.980Z,0.50
2018-09-27T07:56:43.124Z,0.50
2018-09-27T07:57:43.043Z,0.50
2018-09-27T07:58:43.072Z,0.50
2018-09-27T07:59:43.103Z,0.40
2018-09-27T08:00:43.135Z,0.40
2018-09-27T08:01:43.165Z,0.40
2018-09-27T08:02:43.280Z,0.40
2018-09-27T08:03:43.271Z,0.50
2018-09-27T08:04:43.265Z,0.50
2018-09-27T08:05:43.296Z,0.30
2018-09-27T08:06:43.326Z,0.30
2018-09-27T08:07:43.359Z,0.30
2018-09-27T08:08:43.500Z,0.30
2018-09-27T08:09:43.426Z,0.30
2018-09-27T08:10:43.458Z,0.30
2018-09-27T08:11:43.523Z,0.30
2018-09-27T08:13:43.561Z,0.20
2018-09-27T08:14:43.620Z,0.20
2018-09-27T08:15:43.629Z,0.30
2018-09-27T08:16:43.732Z,0.20
2018-09-27T08:17:43.699Z,0.20
2018-09-27T08:18:43.740Z,0.20
2018-09-27T08:19:43.770Z,0.20
2018-09-27T08:20:44.049Z,0.20
2018-09-27T08:21:43.842Z,0.20
2018-09-27T08:22:43.873Z,0.20
2018-09-27T08:23:43.911Z,0.20
2018-09-27T08:24:43.948Z,0.20
2018-09-27T08:25:43.981Z,0.20
2018-09-27T08:26:44.037Z,0.20
2018-09-27T08:27:44.056Z,0.20
2018-09-27T08:28:44.092Z,0.10
2018-09-27T08:29:44.450Z,0.10
2018-09-27T08:36:36.826Z,0.10
2018-09-27T08:37:36.832Z,0.20
2018-09-27T08:38:36.918Z,0.10
2018-09-27T08:39:36.897Z,0.10
2018-09-27T08:48:52.979Z,0.10
2018-09-27T08:49:53.015Z,0.10
2018-09-27T08:50:53.375Z,0.20
2018-09-27T08:51:53.089Z,0.10
2018-09-27T08:52:53.129Z,0.10
2018-09-27T08:53:53.167Z,0.10
2018-09-27T08:54:53.204Z,0.10
2018-09-27T08:59:44.255Z,0.10
2018-09-27T09:00:44.312Z,0.10
2018-09-27T09:01:44.434Z,0.10
2018-09-27T09:02:44.366Z,0.10
2018-09-27T09:03:44.523Z,0.10
2018-09-27T09:04:44.444Z,0.10
2018-09-27T09:06:27.042Z,0.10
2018-09-27T09:07:27.086Z,0.10
2018-09-27T09:08:27.117Z,0.10
2018-09-27T09:09:27.211Z,0.10
2018-09-27T09:10:27.193Z,0.10
2018-09-27T09:11:27.232Z,0.10
2018-09-27T09:12:27.270Z,0.10
2018-09-27T09:13:27.342Z,0.10
2018-09-27T09:14:27.348Z,0.10
2018-09-27T09:15:27.431Z,0.10
2018-09-27T09:16:27.425Z,0.10
2018-09-27T09:17:27.462Z,0.10
2018-09-27T09:18:27.501Z,0.10
2018-09-27T09:19:27.569Z,0.10
2018-09-27T09:20:27.577Z,0.10
2018-09-27T09:21:27.661Z,0.10
2018-09-27T09:22:27.652Z,0.10
2018-09-27T09:23:27.690Z,0.10
2018-09-27T09:24:27.747Z,0.10
2018-09-27T09:25:27.810Z,0.10
2018-09-27T09:26:27.808Z,0.10
2018-09-27T09:27:27.903Z,0.10
2018-09-27T09:28:27.941Z,0.10
2018-09-27T09:29:27.955Z,0.10
2018-09-27T09:30:27.961Z,0.10
2018-09-27T09:31:27.999Z,0.10
2018-09-27T09:32:28.038Z,0.10
2018-09-27T09:33:28.112Z,0.10
2018-09-27T09:34:28.113Z,0.10
2018-09-27T09:35:28.208Z,0.10
2018-09-27T09:37:28.230Z,0.10
2018-09-27T09:38:28.270Z,0.10
2018-09-27T09:39:28.309Z,0.10
2018-09-27T09:40:28.346Z,0.00
2018-09-27T09:41:28.384Z,0.10
2018-09-27T09:43:46.081Z,0.10
2018-09-27T09:44:48.732Z,0.10
2018-09-27T09:45:46.142Z,0.10
2018-09-27T09:46:46.185Z,0.10
2018-09-27T09:47:46.219Z,0.10
2018-09-27T09:48:46.262Z,0.10
2018-09-27T09:49:46.296Z,0.10
2018-09-27T09:50:46.341Z,0.10
2018-09-27T09:51:46.376Z,0.10
2018-09-27T09:52:46.415Z,0.10
2018-09-27T09:53:46.453Z,0.10
2018-09-27T09:54:46.493Z,0.10
2018-09-27T09:55:46.531Z,0.10
2018-09-27T09:56:46.570Z,0.10
2018-09-27T09:57:46.609Z,0.10
2018-09-27T09:58:46.661Z,0.10
2018-09-27T09:59:46.684Z,0.10
2018-09-27T10:00:46.723Z,0.10
2018-09-27T10:01:46.768Z,0.10
2018-09-27T10:02:46.800Z,0.10
2018-09-27T10:03:46.838Z,0.10
2018-09-27T10:04:46.897Z,0.10
2018-09-27T10:05:46.934Z,0.10
2018-09-27T10:06:46.974Z,0.10
2018-09-27T10:07:47.316Z,0.10
2018-09-27T10:08:47.100Z,0.10
2018-09-27T10:09:47.073Z,0.10
2018-09-27T10:10:47.111Z,0.10
2018-09-27T10:12:47.187Z,0.10
2018-09-27T10:13:47.228Z,0.10
2018-09-27T10:14:47.692Z,0.10
2018-09-27T10:15:47.307Z,0.10
2018-09-27T10:16:47.670Z,0.10
2018-09-27T10:17:47.599Z,0.10
2018-09-27T10:18:47.422Z,0.10
2018-09-27T10:19:47.786Z,0.20
2018-09-27T10:20:47.514Z,0.10
2018-09-27T10:21:47.576Z,0.10
2018-09-27T10:22:47.600Z,0.10
2018-09-27T10:24:47.657Z,0.10
2018-09-27T10:25:47.711Z,0.10
2018-09-27T10:26:47.961Z,0.10
2018-09-27T10:27:47.789Z,0.10
2018-09-27T10:28:47.809Z,0.10
2018-09-27T10:29:47.848Z,0.10
2018-09-27T10:30:47.907Z,0.10
2018-09-27T10:31:47.949Z,0.10
2018-09-27T10:32:47.964Z,0.10
2018-09-27T10:33:48.004Z,0.10
2018-09-27T10:34:48.044Z,0.10
2018-09-27T10:35:48.084Z,0.10
2018-09-27T10:36:48.124Z,0.10
2018-09-27T10:37:48.162Z,0.10
2018-09-27T10:38:48.199Z,0.10
2018-09-27T10:39:48.239Z,0.10
2018-09-27T10:40:48.277Z,0.10
2018-09-27T10:41:50.937Z,0.10
2018-09-27T10:42:48.355Z,0.10
2018-09-27T10:43:48.394Z,0.10
2018-09-27T10:44:48.469Z,0.10
2018-09-27T10:45:51.701Z,0.00
2018-09-27T10:46:48.508Z,0.10
2018-09-27T10:47:48.546Z,0.10
2018-09-27T10:48:48.585Z,0.10
2018-09-27T10:49:48.626Z,0.10
2018-09-27T10:50:48.668Z,0.10
2018-09-27T10:51:48.706Z,0.10
2018-09-27T10:52:48.749Z,0.10
2018-09-27T10:53:48.793Z,0.10
2018-09-27T10:54:48.824Z,0.10
2018-09-27T10:55:48.861Z,0.10
2018-09-27T10:56:48.901Z,0.10
2018-09-27T10:57:48.942Z,0.10
2018-09-27T10:58:48.983Z,0.10
2018-09-27T10:59:49.019Z,0.10
2018-09-27T11:00:49.059Z,0.10
2018-09-27T11:01:49.100Z,0.10
2018-09-27T11:02:49.140Z,0.10
2018-09-27T11:03:49.177Z,0.10
2018-09-27T11:04:49.218Z,0.10
2018-09-27T11:05:49.584Z,0.10
2018-09-27T11:06:49.310Z,0.10
2018-09-27T11:07:49.334Z,0.10
2018-09-27T11:08:49.374Z,0.10
2018-09-27T11:09:49.414Z,0.10
2018-09-27T11:10:49.460Z,0.10
2018-09-27T11:11:49.492Z,0.10
2018-09-27T11:12:49.532Z,0.10
2018-09-27T11:13:49.573Z,0.10
2018-09-27T11:14:49.616Z,0.10
2018-09-27T11:15:49.650Z,0.10
2018-09-27T11:16:49.691Z,0.10
2018-09-27T11:17:49.730Z,0.10
2018-09-27T11:18:49.772Z,0.10
2018-09-27T11:19:49.809Z,0.10
2018-09-27T11:20:49.851Z,0.10
2018-09-27T11:21:49.893Z,0.10
2018-09-27T11:22:49.984Z,0.10
2018-09-27T11:23:49.969Z,0.10
2018-09-27T11:24:50.009Z,0.10
2018-09-27T11:25:50.050Z,0.10
2018-09-27T11:26:50.089Z,0.10
2018-09-27T11:27:50.144Z,0.10
2018-09-27T11:28:50.188Z,0.10
2018-09-27T11:29:50.208Z,0.10
2018-09-27T11:30:50.251Z,0.10
2018-09-27T11:31:50.286Z,0.10
2018-09-27T11:32:50.332Z,0.10
2018-09-27T11:33:50.366Z,0.10
2018-09-27T11:34:50.404Z,0.10
2018-09-27T11:35:50.443Z,0.10
2018-09-27T11:36:50.486Z,0.10
2018-09-27T11:37:50.525Z,0.10
2018-09-27T11:38:50.569Z,0.10
2018-09-27T11:39:50.603Z,0.10
2018-09-27T11:40:50.642Z,0.10
2018-09-27T11:41:50.684Z,0.10
2018-09-27T11:42:50.783Z,0.10
2018-09-27T11:43:50.804Z,0.10
2018-09-27T11:44:50.803Z,0.10
2018-09-27T11:45:50.853Z,0.10
2018-09-27T11:46:50.878Z,0.10
2018-09-27T11:47:50.919Z,0.10
2018-09-27T11:48:50.969Z,0.10
2018-09-27T11:49:51.058Z,0.10
2018-09-27T11:50:51.037Z,0.10
2018-09-27T11:51:51.074Z,0.10
2018-09-27T11:52:51.114Z,0.10
2018-09-27T11:53:51.200Z,0.10
2018-09-27T11:54:51.223Z,0.10
2018-09-27T11:55:51.235Z,0.10
2018-09-27T11:56:51.272Z,0.10
2018-09-27T11:57:51.312Z,0.10
2018-09-27T11:58:51.391Z,0.10
2018-09-27T11:59:51.389Z,0.10
2018-09-27T12:00:51.428Z,0.10
2018-09-27T12:01:51.469Z,0.10
2018-09-27T12:02:51.509Z,0.10
2018-09-27T12:03:51.547Z,0.10
2018-09-27T12:04:51.585Z,0.10
2018-09-27T12:05:51.631Z,0.10
2018-09-27T12:06:51.663Z,0.10
2018-09-27T12:07:51.703Z,0.10
2018-09-27T12:08:51.759Z,0.10
2018-09-27T12:09:51.798Z,0.10
2018-09-27T12:10:51.821Z,0.10
2018-09-27T12:11:51.892Z,0.10
2018-09-27T12:12:51.914Z,0.20
2018-09-27T12:13:51.938Z,0.10
2018-09-27T12:14:51.977Z,0.10
2018-09-27T12:15:52.015Z,0.10
2018-09-27T12:16:52.059Z,0.10
2018-09-27T12:17:52.103Z,0.10
2018-09-27T12:18:52.134Z,0.10
2018-09-27T12:19:52.212Z,0.10
2018-09-27T12:20:52.207Z,0.10
2018-09-27T12:21:52.245Z,0.10
2018-09-27T12:22:52.336Z,0.10
2018-09-27T12:23:52.325Z,0.10
2018-09-27T12:24:52.362Z,0.10
2018-09-27T12:25:52.403Z,0.10
2018-09-27T12:26:52.441Z,0.10
2018-09-27T12:27:52.477Z,0.10
2018-09-27T12:28:52.519Z,0.10
2018-09-27T12:29:52.555Z,0.10
2018-09-27T12:30:52.597Z,0.10
2018-09-27T12:31:52.632Z,0.10
2018-09-27T12:32:52.680Z,0.10
2018-09-27T12:33:52.715Z,0.10
2018-09-27T12:34:52.746Z,0.10
2018-09-27T12:35:52.783Z,0.10
2018-09-27T12:36:52.827Z,0.10
2018-09-27T12:37:52.862Z,0.10
2018-09-27T12:38:52.976Z,0.10
2018-09-27T12:39:52.936Z,0.20
2018-09-27T12:40:52.977Z,0.10
2018-09-27T12:41:53.088Z,0.10
2018-09-27T12:42:53.062Z,0.10
2018-09-27T12:43:53.106Z,0.10
2018-09-27T12:44:53.185Z,0.10
2018-09-27T12:45:53.248Z,0.10
2018-09-27T12:46:53.319Z,0.10
2018-09-27T12:47:53.247Z,0.10
2018-09-27T12:48:53.291Z,0.10
2018-09-27T12:49:53.323Z,0.10
2018-09-27T12:50:53.369Z,0.10
2018-09-27T12:51:53.557Z,0.10
2018-09-27T12:52:53.523Z,0.10
2018-09-27T12:53:53.479Z,0.10
2018-09-27T12:54:53.515Z,0.10
2018-09-27T12:55:53.575Z,0.10
2018-09-27T12:56:53.590Z,0.10
2018-09-27T12:57:53.630Z,0.10
2018-09-27T12:58:53.668Z,0.10
2018-09-27T12:59:53.704Z,0.10
2018-09-27T13:00:53.777Z,0.10
2018-09-27T13:01:53.868Z,0.10
2018-09-27T13:02:53.941Z,0.10
2018-09-27T13:03:53.864Z,0.10
2018-09-27T13:04:53.894Z,0.10
2018-09-27T13:05:53.934Z,0.10
2018-09-27T13:06:53.978Z,0.10
2018-09-27T13:07:54.008Z,0.10
2018-09-27T13:08:54.065Z,0.20
2018-09-27T13:09:54.239Z,0.10
2018-09-27T13:10:58.162Z,0.20
2018-09-27T13:11:54.170Z,0.10
2018-09-27T13:12:54.343Z,0.10
2018-09-27T13:13:54.234Z,0.10
2018-09-27T13:14:54.324Z,0.20
2018-09-27T13:15:54.313Z,0.10
2018-09-27T13:16:54.346Z,0.10
2018-09-27T13:17:54.387Z,0.10
2018-09-27T13:18:57.939Z,0.10
2018-09-27T13:19:54.545Z,0.10
2018-09-27T13:20:54.497Z,0.10
2018-09-27T13:21:54.537Z,0.10
2018-09-27T13:22:54.623Z,0.10
2018-09-27T13:23:54.608Z,0.10
2018-09-27T13:24:54.718Z,0.10
2018-09-27T13:25:54.687Z,0.10
2018-09-27T13:26:54.801Z,0.20
2018-09-27T13:27:54.759Z,0.20
2018-09-27T13:28:54.998Z,0.10
2018-09-27T13:29:54.886Z,0.10
2018-09-27T13:30:54.882Z,0.20
2018-09-27T13:31:54.923Z,0.10
2018-09-27T13:32:54.996Z,0.10
2018-09-27T13:33:55.002Z,0.20
2018-09-27T13:34:55.020Z,0.10
2018-09-27T13:35:55.057Z,0.10
2018-09-27T13:36:55.175Z,0.10
2018-09-27T13:37:55.131Z,0.20
2018-09-27T13:38:55.181Z,0.10
2018-09-27T13:39:55.205Z,0.10
2018-09-27T13:40:55.240Z,0.10
2018-09-27T13:41:55.277Z,0.20
2018-09-27T13:42:55.328Z,0.10
2018-09-27T13:43:55.351Z,0.20